Astoria, New York
Current Conditions -  °F | °C
As of 7:51 AM on Saturday 25 Oct 2014 (Local Time) from KNYC Reporting Station
Clear Clear  
Wind Chill: 51°   Ceiling: Unl
Heat Index: 51°   Visibility: 10mi
Dew Point: 36°   Wind: 6mph
Humidity: 56%   Direction: 290°WNW
Pressure: 29.89"   Gusts: NA
Location:  40.77°N, 73.93°W
Report Text: KNYC 251151Z AUTO 29005KT 10SM CLR 11/02 A2989 RMK AO2 SLP115 T01060022 10128 20100 51003 $
Loading
Personal Weather Stations






























Interactive Weather Map
Tropical Storm Tracking
New forecast layout! Learn more

10-Day Weather Forecast

Advertisements
Track Severe Weather on mobile